Time;durP1;ratioP1;P1;durP2;ratioP2;P2;SDS_P1;SDS_P2;PMS_P1;PMS_P2;Temp;Humidity;BMP_temperature;BMP_pressure;BME280_temperature;BME280_humidity;BME280_pressure;Samples;Min_cycle;Max_cycle;Signal;HPM_P1;HPM_P2
2022/08/21 00:01:47;;;;;;;4.88;2.30;;;;;;;;;;4985053;28;20074;-83
2022/08/21 00:04:13;;;;;;;5.97;2.53;;;;;;;;;;4992849;28;20124;-82
2022/08/21 00:06:40;;;;;;;4.55;2.10;;;;;;;;;;4987887;28;20050;-82
2022/08/21 00:09:07;;;;;;;4.75;2.20;;;;;;;;;;4978885;28;20112;-82
2022/08/21 00:11:34;;;;;;;4.85;2.03;;;;;;;;;;4994263;28;20105;-82
2022/08/21 00:14:00;;;;;;;4.55;1.83;;;;;;;;;;4985003;28;20526;-83
2022/08/21 00:16:26;;;;;;;4.95;2.08;;;;;;;;;;4987834;28;20084;-82
2022/08/21 00:18:52;;;;;;;7.03;2.30;;;;;;;;;;4981852;28;20064;-82
2022/08/21 00:21:19;;;;;;;7.03;2.30;;;;;;;;;;4989330;28;20415;-82
2022/08/21 00:23:45;;;;;;;7.40;2.20;;;;;;;;;;4995619;28;20045;-82
2022/08/21 00:26:11;;;;;;;4.75;1.80;;;;;;;;;;5001335;28;20565;-83
2022/08/21 00:28:37;;;;;;;5.85;2.20;;;;;;;;;;4984254;28;20038;-83
2022/08/21 00:31:03;;;;;;;5.53;1.98;;;;;;;;;;4997847;28;20073;-83
2022/08/21 00:33:30;;;;;;;5.40;2.00;;;;;;;;;;5000535;28;20048;-83
2022/08/21 00:35:56;;;;;;;6.40;2.22;;;;;;;;;;4990703;28;20042;-82
2022/08/21 00:38:22;;;;;;;7.80;2.80;;;;;;;;;;4994961;28;20134;-82
2022/08/21 00:40:53;;;;;;;4.75;1.90;;;;;;;;;;4994984;28;20062;-84
2022/08/21 00:43:20;;;;;;;4.60;2.00;;;;;;;;;;5002250;28;20455;-83
2022/08/21 00:45:47;;;;;;;5.32;2.30;;;;;;;;;;4986198;28;20371;-83
2022/08/21 00:48:13;;;;;;;5.72;2.22;;;;;;;;;;4998869;28;20046;-82
2022/08/21 00:50:42;;;;;;;5.05;2.08;;;;;;;;;;4990665;28;20054;-83
2022/08/21 00:53:08;;;;;;;4.95;2.20;;;;;;;;;;4994269;28;20037;-82
2022/08/21 00:55:35;;;;;;;4.53;2.30;;;;;;;;;;4984349;28;20050;-83
2022/08/21 00:58:01;;;;;;;3.47;2.13;;;;;;;;;;4995297;28;20096;-83
2022/08/21 01:00:31;;;;;;;6.18;2.13;;;;;;;;;;4989444;28;20061;-82
2022/08/21 01:02:59;;;;;;;5.07;2.05;;;;;;;;;;4999489;28;20053;-82
2022/08/21 01:05:26;;;;;;;5.80;2.40;;;;;;;;;;4991421;28;20462;-82
2022/08/21 01:07:52;;;;;;;6.00;2.08;;;;;;;;;;4979544;28;20533;-82
2022/08/21 01:10:19;;;;;;;3.85;2.00;;;;;;;;;;4986041;28;20152;-82
2022/08/21 01:12:45;;;;;;;3.53;2.17;;;;;;;;;;5004636;28;20071;-83
2022/08/21 01:15:12;;;;;;;4.00;2.20;;;;;;;;;;4989383;28;20118;-83
2022/08/21 01:17:38;;;;;;;5.70;1.98;;;;;;;;;;4994983;28;20040;-83
2022/08/21 01:20:06;;;;;;;4.03;2.00;;;;;;;;;;4989392;28;20439;-82
2022/08/21 01:22:32;;;;;;;6.53;2.78;;;;;;;;;;4989933;28;20042;-82
2022/08/21 01:24:58;;;;;;;7.55;2.80;;;;;;;;;;4993878;28;20690;-82
2022/08/21 01:27:24;;;;;;;6.82;2.50;;;;;;;;;;4992487;28;20050;-83
2022/08/21 01:29:57;;;;;;;6.63;2.25;;;;;;;;;;4992187;28;20065;-82
2022/08/21 01:32:23;;;;;;;7.85;2.40;;;;;;;;;;4987784;28;20081;-82
2022/08/21 01:34:50;;;;;;;3.90;2.30;;;;;;;;;;4983549;28;20505;-82
2022/08/21 01:37:16;;;;;;;5.22;2.13;;;;;;;;;;4991854;28;20055;-82
2022/08/21 01:39:42;;;;;;;4.82;2.33;;;;;;;;;;4988773;28;20096;-82
2022/08/21 01:42:08;;;;;;;5.05;2.28;;;;;;;;;;4982070;28;20130;-82
2022/08/21 01:44:34;;;;;;;7.50;2.50;;;;;;;;;;5002098;28;20050;-85
2022/08/21 01:47:03;;;;;;;7.28;2.58;;;;;;;;;;4992000;28;20076;-82
2022/08/21 01:49:29;;;;;;;5.32;2.30;;;;;;;;;;4989941;28;20054;-82
2022/08/21 01:51:55;;;;;;;5.97;2.20;;;;;;;;;;4990503;28;20501;-82
2022/08/21 01:54:22;;;;;;;6.13;2.25;;;;;;;;;;5000838;28;20489;-82
2022/08/21 01:56:49;;;;;;;4.07;2.30;;;;;;;;;;4990849;28;20041;-84
2022/08/21 01:59:15;;;;;;;5.70;2.47;;;;;;;;;;4988239;28;20066;-83
2022/08/21 02:01:42;;;;;;;5.97;2.33;;;;;;;;;;4992668;28;20378;-83
2022/08/21 02:04:08;;;;;;;5.32;2.65;;;;;;;;;;5001162;28;20437;-82
2022/08/21 02:06:35;;;;;;;6.88;2.80;;;;;;;;;;4991484;28;20521;-82
2022/08/21 02:09:01;;;;;;;6.03;2.30;;;;;;;;;;4987144;28;20065;-83
2022/08/21 02:11:27;;;;;;;5.18;2.58;;;;;;;;;;4990385;28;20516;-82
2022/08/21 02:13:53;;;;;;;8.85;2.65;;;;;;;;;;5004583;28;20447;-82
2022/08/21 02:16:19;;;;;;;6.80;2.47;;;;;;;;;;4989047;28;20085;-82
2022/08/21 02:18:46;;;;;;;6.78;2.25;;;;;;;;;;4985407;28;20048;-82
2022/08/21 02:21:12;;;;;;;5.32;2.33;;;;;;;;;;4991579;28;20053;-81
2022/08/21 02:23:38;;;;;;;5.68;2.13;;;;;;;;;;4997241;28;20039;-82
2022/08/21 02:26:06;;;;;;;6.22;2.50;;;;;;;;;;4982258;28;20586;-82
2022/08/21 02:28:36;;;;;;;7.35;2.42;;;;;;;;;;4984841;28;20093;-82
2022/08/21 02:31:02;;;;;;;7.60;2.28;;;;;;;;;;4985776;28;20627;-83
2022/08/21 02:33:29;;;;;;;8.07;2.83;;;;;;;;;;4995282;28;20057;-83
2022/08/21 02:35:56;;;;;;;5.68;2.53;;;;;;;;;;4990143;28;20125;-83
2022/08/21 02:38:26;;;;;;;6.25;2.28;;;;;;;;;;4979519;28;20108;-82
2022/08/21 02:40:53;;;;;;;5.43;2.33;;;;;;;;;;4998993;28;20121;-83
2022/08/21 02:43:21;;;;;;;5.95;2.30;;;;;;;;;;4983785;28;20074;-83
2022/08/21 02:45:47;;;;;;;4.32;2.22;;;;;;;;;;4990086;28;20073;-83
2022/08/21 02:48:15;;;;;;;5.95;2.20;;;;;;;;;;4984371;28;20109;-82
2022/08/21 02:50:43;;;;;;;5.82;2.20;;;;;;;;;;4993220;28;20049;-82
2022/08/21 02:53:10;;;;;;;8.90;2.60;;;;;;;;;;4983342;28;20073;-83
2022/08/21 02:55:37;;;;;;;7.05;2.80;;;;;;;;;;4992342;28;20054;-82
2022/08/21 02:58:05;;;;;;;6.45;2.40;;;;;;;;;;4991502;28;20041;-82
2022/08/21 03:00:31;;;;;;;7.18;2.85;;;;;;;;;;4981528;28;20125;-83
2022/08/21 03:02:58;;;;;;;6.80;2.35;;;;;;;;;;4988481;28;20029;-83
2022/08/21 03:05:24;;;;;;;6.63;2.30;;;;;;;;;;4990565;28;20053;-81
2022/08/21 03:07:52;;;;;;;9.98;2.45;;;;;;;;;;4981419;28;20164;-82
2022/08/21 03:10:19;;;;;;;6.88;2.25;;;;;;;;;;4979725;28;20498;-82
2022/08/21 03:12:45;;;;;;;7.20;2.25;;;;;;;;;;4988648;28;20390;-83
2022/08/21 03:15:12;;;;;;;5.60;2.47;;;;;;;;;;4990740;28;20054;-81
2022/08/21 03:17:38;;;;;;;8.55;2.20;;;;;;;;;;4984178;28;20035;-81
2022/08/21 03:20:06;;;;;;;9.98;2.42;;;;;;;;;;4988030;28;20042;-82
2022/08/21 03:22:32;;;;;;;6.15;2.20;;;;;;;;;;4980737;28;20058;-82
2022/08/21 03:24:59;;;;;;;8.13;2.55;;;;;;;;;;4987809;28;20141;-82
2022/08/21 03:27:26;;;;;;;8.05;2.30;;;;;;;;;;4986659;28;20507;-83
2022/08/21 03:29:52;;;;;;;11.70;2.85;;;;;;;;;;4980992;28;20038;-81
2022/08/21 03:32:19;;;;;;;6.95;2.40;;;;;;;;;;4982895;28;20694;-83
2022/08/21 03:34:45;;;;;;;7.10;2.63;;;;;;;;;;4978607;28;20046;-82
2022/08/21 03:37:12;;;;;;;6.32;2.65;;;;;;;;;;4979919;28;20082;-81
2022/08/21 03:39:38;;;;;;;8.05;2.35;;;;;;;;;;4982726;28;20494;-83
2022/08/21 03:42:04;;;;;;;8.30;2.80;;;;;;;;;;4988923;28;20454;-82
2022/08/21 03:44:31;;;;;;;7.05;2.10;;;;;;;;;;4978226;28;20060;-82
2022/08/21 03:46:57;;;;;;;10.15;2.70;;;;;;;;;;4993387;28;20060;-82
2022/08/21 03:49:23;;;;;;;7.10;2.20;;;;;;;;;;4980956;28;20047;-82
2022/08/21 03:51:49;;;;;;;9.32;2.63;;;;;;;;;;4986398;28;20046;-82
2022/08/21 03:54:15;;;;;;;6.45;2.63;;;;;;;;;;4990641;28;20050;-82
2022/08/21 03:56:41;;;;;;;8.32;2.22;;;;;;;;;;4991870;28;20124;-82
2022/08/21 03:59:07;;;;;;;7.20;2.60;;;;;;;;;;4980758;28;20373;-82
2022/08/21 04:01:34;;;;;;;5.68;2.72;;;;;;;;;;4988581;28;20074;-82
2022/08/21 04:04:00;;;;;;;7.40;2.65;;;;;;;;;;4992154;28;20042;-82
2022/08/21 04:06:26;;;;;;;9.20;2.67;;;;;;;;;;4993486;28;20133;-81
2022/08/21 04:08:53;;;;;;;8.75;2.50;;;;;;;;;;4996236;28;20046;-81
2022/08/21 04:11:19;;;;;;;8.05;2.85;;;;;;;;;;4991094;28;20050;-82
2022/08/21 04:13:46;;;;;;;6.95;2.60;;;;;;;;;;4987371;28;20092;-82
2022/08/21 04:16:12;;;;;;;8.85;2.85;;;;;;;;;;4987890;28;20050;-82
2022/08/21 04:18:39;;;;;;;6.82;2.80;;;;;;;;;;4989064;28;20042;-82
2022/08/21 04:21:05;;;;;;;10.07;2.85;;;;;;;;;;4983992;28;20073;-81
2022/08/21 04:23:32;;;;;;;6.10;3.08;;;;;;;;;;4989322;28;20042;-81
2022/08/21 04:25:58;;;;;;;8.13;2.72;;;;;;;;;;4992872;28;20520;-81
2022/08/21 04:28:25;;;;;;;9.65;3.38;;;;;;;;;;4982071;28;20105;-82
2022/08/21 04:30:52;;;;;;;9.07;3.13;;;;;;;;;;4983556;28;20054;-81
2022/08/21 04:33:18;;;;;;;8.27;2.85;;;;;;;;;;4989977;28;20073;-82
2022/08/21 04:35:44;;;;;;;7.95;2.80;;;;;;;;;;4998544;28;20038;-81
2022/08/21 04:38:11;;;;;;;7.68;2.70;;;;;;;;;;4994834;28;20050;-81
2022/08/21 04:40:37;;;;;;;7.95;2.55;;;;;;;;;;4991051;28;20363;-82
2022/08/21 04:43:05;;;;;;;8.30;2.67;;;;;;;;;;4989210;28;20066;-84
2022/08/21 04:45:32;;;;;;;10.80;2.63;;;;;;;;;;4992204;28;20077;-82
2022/08/21 04:47:59;;;;;;;6.72;2.75;;;;;;;;;;4990345;28;20046;-84
2022/08/21 04:50:52;;;;;;;7.43;2.55;;;;;;;;;;4992632;28;20050;-85
2022/08/21 04:53:21;;;;;;;10.07;3.05;;;;;;;;;;4974409;28;20062;-84
2022/08/21 04:55:47;;;;;;;7.13;2.72;;;;;;;;;;4985604;28;20049;-86
2022/08/21 04:58:15;;;;;;;9.15;2.67;;;;;;;;;;4993251;28;20132;-87
2022/08/21 05:00:41;;;;;;;8.65;2.65;;;;;;;;;;4995377;28;20041;-84
2022/08/21 05:03:08;;;;;;;7.43;2.38;;;;;;;;;;4999529;28;20045;-82
2022/08/21 05:05:34;;;;;;;8.00;2.75;;;;;;;;;;4990740;28;20047;-83
2022/08/21 05:08:01;;;;;;;8.68;2.95;;;;;;;;;;4993745;28;20041;-84
2022/08/21 05:10:27;;;;;;;9.55;2.78;;;;;;;;;;4984415;28;20050;-83
2022/08/21 05:12:54;;;;;;;9.90;2.75;;;;;;;;;;4990957;28;20046;-84
2022/08/21 05:15:20;;;;;;;10.05;2.83;;;;;;;;;;4993824;28;20112;-84
2022/08/21 05:17:46;;;;;;;8.95;2.80;;;;;;;;;;4996794;28;20093;-84
2022/08/21 05:20:13;;;;;;;7.45;3.22;;;;;;;;;;4984162;28;20038;-83
2022/08/21 05:22:39;;;;;;;8.90;2.70;;;;;;;;;;4997274;28;20056;-83
2022/08/21 05:25:06;;;;;;;11.52;2.83;;;;;;;;;;4991700;28;20046;-83
2022/08/21 05:27:32;;;;;;;10.18;3.28;;;;;;;;;;4997740;28;20130;-83
2022/08/21 05:29:58;;;;;;;6.15;2.58;;;;;;;;;;4989717;28;20042;-84
2022/08/21 05:32:27;;;;;;;9.77;2.55;;;;;;;;;;4994481;28;20097;-83
2022/08/21 05:34:53;;;;;;;9.90;2.70;;;;;;;;;;4999988;28;20152;-84
2022/08/21 05:37:19;;;;;;;7.75;2.80;;;;;;;;;;4990149;28;20528;-83
2022/08/21 05:39:45;;;;;;;5.38;2.50;;;;;;;;;;4987190;28;20041;-83
2022/08/21 05:42:11;;;;;;;8.73;3.10;;;;;;;;;;4997398;28;20049;-84
2022/08/21 05:44:37;;;;;;;10.10;2.85;;;;;;;;;;4979157;28;20049;-83
2022/08/21 05:47:08;;;;;;;9.90;3.08;;;;;;;;;;4992460;28;20383;-84
2022/08/21 05:49:34;;;;;;;7.68;2.60;;;;;;;;;;4990593;28;20398;-82
2022/08/21 05:52:00;;;;;;;7.60;2.90;;;;;;;;;;4994824;28;20486;-83
2022/08/21 05:54:26;;;;;;;8.73;2.90;;;;;;;;;;4991844;28;20058;-84
2022/08/21 05:56:52;;;;;;;8.55;2.80;;;;;;;;;;4994505;28;20054;-83
2022/08/21 05:59:18;;;;;;;10.63;2.70;;;;;;;;;;4984778;28;20042;-83
2022/08/21 06:01:45;;;;;;;8.82;2.92;;;;;;;;;;4990725;28;20080;-83
2022/08/21 06:04:11;;;;;;;10.30;3.35;;;;;;;;;;4993207;28;20038;-82
2022/08/21 06:06:37;;;;;;;10.40;3.00;;;;;;;;;;4984807;28;20520;-83
2022/08/21 06:09:05;;;;;;;10.32;3.17;;;;;;;;;;4997467;28;20065;-83
2022/08/21 06:11:31;;;;;;;8.65;2.80;;;;;;;;;;4994442;28;20050;-83
2022/08/21 06:13:58;;;;;;;12.52;3.15;;;;;;;;;;4992152;28;20050;-84
2022/08/21 06:16:24;;;;;;;7.75;2.60;;;;;;;;;;4993752;28;20039;-83
2022/08/21 06:18:50;;;;;;;9.55;3.70;;;;;;;;;;4985338;28;20410;-83
2022/08/21 06:21:16;;;;;;;11.35;2.70;;;;;;;;;;4990002;28;20450;-82
2022/08/21 06:23:42;;;;;;;8.23;3.03;;;;;;;;;;4993172;28;20052;-82
2022/08/21 06:26:09;;;;;;;9.38;2.80;;;;;;;;;;4989159;28;20046;-83
2022/08/21 06:28:36;;;;;;;11.38;3.33;;;;;;;;;;4986236;28;20094;-83
2022/08/21 06:31:10;;;;;;;7.93;3.00;;;;;;;;;;4986401;28;20077;-83
2022/08/21 06:33:36;;;;;;;5.72;2.63;;;;;;;;;;4985703;28;20045;-83
2022/08/21 06:36:02;;;;;;;9.45;3.05;;;;;;;;;;4991867;28;20042;-83
2022/08/21 06:38:28;;;;;;;7.25;2.75;;;;;;;;;;4996787;28;20053;-84
2022/08/21 06:40:54;;;;;;;10.75;3.00;;;;;;;;;;4993827;28;20038;-83
2022/08/21 06:43:20;;;;;;;10.10;3.42;;;;;;;;;;4998146;28;20136;-83
2022/08/21 06:45:46;;;;;;;5.95;2.78;;;;;;;;;;4987734;28;20209;-85
2022/08/21 06:48:12;;;;;;;8.48;2.67;;;;;;;;;;4989699;28;20500;-82
2022/08/21 06:50:38;;;;;;;15.07;3.97;;;;;;;;;;4985095;28;20037;-83
2022/08/21 06:53:06;;;;;;;12.30;3.35;;;;;;;;;;4986750;28;20070;-84
2022/08/21 06:55:32;;;;;;;12.23;3.25;;;;;;;;;;4990622;28;20371;-85
2022/08/21 06:57:58;;;;;;;9.32;3.00;;;;;;;;;;4993227;28;20046;-82
2022/08/21 07:00:24;;;;;;;6.90;3.25;;;;;;;;;;4989650;28;20069;-83
2022/08/21 07:02:50;;;;;;;4.32;2.40;;;;;;;;;;4997482;28;20038;-82
2022/08/21 07:05:16;;;;;;;10.75;3.25;;;;;;;;;;4989083;28;20115;-82
2022/08/21 07:07:42;;;;;;;13.05;3.60;;;;;;;;;;4982254;28;20052;-83
2022/08/21 07:10:09;;;;;;;8.20;2.78;;;;;;;;;;4981968;28;20124;-82
2022/08/21 07:12:35;;;;;;;8.65;3.03;;;;;;;;;;4995080;28;20042;-82
2022/08/21 07:15:01;;;;;;;11.15;3.10;;;;;;;;;;4994027;28;20109;-83
2022/08/21 07:17:27;;;;;;;8.18;2.85;;;;;;;;;;4982578;28;20583;-83
2022/08/21 07:19:53;;;;;;;10.23;3.25;;;;;;;;;;4983242;28;20125;-83
2022/08/21 07:22:20;;;;;;;9.50;3.35;;;;;;;;;;4996534;28;20041;-85
2022/08/21 07:24:46;;;;;;;7.80;3.08;;;;;;;;;;4987003;28;20060;-84
2022/08/21 07:27:13;;;;;;;8.95;2.85;;;;;;;;;;4993205;28;20050;-85
2022/08/21 07:29:39;;;;;;;10.20;3.20;;;;;;;;;;4990880;28;20049;-85
2022/08/21 07:32:05;;;;;;;8.30;3.33;;;;;;;;;;4972186;28;20054;-84
2022/08/21 07:34:31;;;;;;;6.60;2.83;;;;;;;;;;4993109;28;20053;-85
2022/08/21 07:36:58;;;;;;;8.88;3.45;;;;;;;;;;4986908;28;20053;-85
2022/08/21 07:39:24;;;;;;;10.20;3.13;;;;;;;;;;4991706;28;20054;-84
2022/08/21 07:41:50;;;;;;;6.75;3.10;;;;;;;;;;4995731;28;20433;-87
2022/08/21 07:44:16;;;;;;;6.97;3.22;;;;;;;;;;4984249;28;20090;-83
2022/08/21 07:46:42;;;;;;;9.43;3.22;;;;;;;;;;4980052;28;20128;-82
2022/08/21 07:49:08;;;;;;;11.43;3.80;;;;;;;;;;5000075;28;20081;-81
2022/08/21 07:51:34;;;;;;;7.15;3.25;;;;;;;;;;5001832;28;20572;-81
2022/08/21 07:54:01;;;;;;;7.25;3.08;;;;;;;;;;5015423;28;20041;-82
2022/08/21 07:56:27;;;;;;;8.73;3.30;;;;;;;;;;5000915;28;20046;-81
2022/08/21 07:58:53;;;;;;;9.00;3.47;;;;;;;;;;4975749;28;20050;-82
2022/08/21 08:01:19;;;;;;;9.80;3.35;;;;;;;;;;4999381;28;20521;-81
2022/08/21 08:03:46;;;;;;;8.60;3.00;;;;;;;;;;5001761;28;20030;-83
2022/08/21 08:06:12;;;;;;;7.97;2.92;;;;;;;;;;4999653;28;20173;-83
2022/08/21 08:08:40;;;;;;;7.28;2.90;;;;;;;;;;5000513;28;20050;-84
2022/08/21 08:11:06;;;;;;;7.15;3.08;;;;;;;;;;5004901;28;20053;-85
2022/08/21 08:13:33;;;;;;;7.68;2.97;;;;;;;;;;5013117;28;20511;-83
2022/08/21 08:15:59;;;;;;;7.30;3.00;;;;;;;;;;5011419;28;20592;-84
2022/08/21 08:18:25;;;;;;;6.95;3.17;;;;;;;;;;4991364;28;20124;-79
2022/08/21 08:20:51;;;;;;;8.60;3.30;;;;;;;;;;4995491;28;20050;-84
2022/08/21 08:23:18;;;;;;;10.55;3.10;;;;;;;;;;4985205;28;20399;-83
2022/08/21 08:25:44;;;;;;;7.22;3.40;;;;;;;;;;4992232;28;20054;-85
2022/08/21 08:28:10;;;;;;;8.63;3.40;;;;;;;;;;4999798;28;20050;-83
2022/08/21 08:30:36;;;;;;;7.68;3.25;;;;;;;;;;4994031;28;20053;-84
2022/08/21 08:33:02;;;;;;;8.80;3.20;;;;;;;;;;4987713;28;20072;-83
2022/08/21 08:35:29;;;;;;;7.50;3.20;;;;;;;;;;4993542;28;20047;-84
2022/08/21 08:37:55;;;;;;;12.50;3.25;;;;;;;;;;4996915;28;21345;-84
2022/08/21 08:40:21;;;;;;;8.93;3.10;;;;;;;;;;4997313;28;20045;-82
2022/08/21 08:42:47;;;;;;;12.35;3.33;;;;;;;;;;4998612;28;20080;-82
2022/08/21 08:45:16;;;;;;;9.45;3.72;;;;;;;;;;4986189;28;20553;-83
2022/08/21 08:48:03;;;;;;;5.78;2.97;;;;;;;;;;5002680;28;20129;-82
2022/08/21 08:50:38;;;;;;;7.85;3.05;;;;;;;;;;4989592;28;20399;-83
2022/08/21 08:53:07;;;;;;;6.50;2.95;;;;;;;;;;4994759;28;20553;-84
2022/08/21 08:55:35;;;;;;;4.97;2.70;;;;;;;;;;4993451;28;20100;-84
2022/08/21 08:58:02;;;;;;;10.38;3.17;;;;;;;;;;4999730;28;20078;-83
2022/08/21 09:00:29;;;;;;;7.90;2.75;;;;;;;;;;4981839;28;20577;-84
2022/08/21 09:02:56;;;;;;;8.77;3.17;;;;;;;;;;4994010;28;20041;-84
2022/08/21 09:05:24;;;;;;;7.30;2.88;;;;;;;;;;4999991;28;20041;-83
2022/08/21 09:07:50;;;;;;;5.57;2.30;;;;;;;;;;4993612;28;20053;-81
2022/08/21 09:10:22;;;;;;;6.97;2.20;;;;;;;;;;4988589;28;20049;-83
2022/08/21 09:12:50;;;;;;;6.90;2.38;;;;;;;;;;4988947;28;20046;-86
2022/08/21 09:15:42;;;;;;;8.23;2.42;;;;;;;;;;5002335;28;20468;-86
2022/08/21 09:18:14;;;;;;;7.70;3.08;;;;;;;;;;4991193;28;20098;-85
2022/08/21 09:20:59;;;;;;;5.07;2.40;;;;;;;;;;4996308;28;20041;-85
2022/08/21 09:23:29;;;;;;;8.40;2.60;;;;;;;;;;4996262;28;20133;-86
2022/08/21 09:26:06;;;;;;;6.65;2.47;;;;;;;;;;5002954;28;20057;-86
2022/08/21 09:28:36;;;;;;;4.13;2.30;;;;;;;;;;4988894;28;20671;-85
2022/08/21 09:31:10;;;;;;;3.90;2.20;;;;;;;;;;4999856;28;20486;-85
2022/08/21 09:33:36;;;;;;;3.78;2.10;;;;;;;;;;5000869;28;20039;-85
2022/08/21 09:36:04;;;;;;;3.65;2.13;;;;;;;;;;5003282;28;20042;-85
2022/08/21 09:38:35;;;;;;;6.55;2.55;;;;;;;;;;4995534;28;20762;-84
2022/08/21 09:41:05;;;;;;;3.95;2.10;;;;;;;;;;4997378;28;20046;-86
2022/08/21 09:43:32;;;;;;;5.68;2.08;;;;;;;;;;5001185;28;20703;-87
2022/08/21 09:46:11;;;;;;;5.13;2.10;;;;;;;;;;4993227;28;20050;-85
2022/08/21 09:48:42;;;;;;;6.93;2.53;;;;;;;;;;4999089;28;20398;-85
2022/08/21 09:51:10;;;;;;;8.25;2.08;;;;;;;;;;4999891;28;20054;-85
2022/08/21 09:53:42;;;;;;;5.60;2.30;;;;;;;;;;4997504;28;20034;-84
2022/08/21 09:59:12;;;;;;;7.18;2.30;;;;;;;;;;4999735;28;20042;-85
2022/08/21 10:01:43;;;;;;;5.82;2.30;;;;;;;;;;4997641;28;20043;-84
2022/08/21 10:04:09;;;;;;;4.47;2.00;;;;;;;;;;4993480;28;20554;-83
2022/08/21 10:06:35;;;;;;;8.30;2.22;;;;;;;;;;4996882;28;20037;-85
2022/08/21 10:09:09;;;;;;;4.07;2.13;;;;;;;;;;4992248;28;20070;-84
2022/08/21 10:11:36;;;;;;;3.72;2.15;;;;;;;;;;4995605;28;20060;-87
2022/08/21 10:14:02;;;;;;;2.88;1.77;;;;;;;;;;5006650;28;20053;-84
2022/08/21 10:16:28;;;;;;;4.55;2.05;;;;;;;;;;4998675;28;20043;-86
2022/08/21 10:18:57;;;;;;;3.65;2.05;;;;;;;;;;5000112;28;20042;-85
2022/08/21 10:21:33;;;;;;;5.20;2.40;;;;;;;;;;5000027;28;20048;-84
2022/08/21 10:24:05;;;;;;;5.05;2.20;;;;;;;;;;4991321;28;20060;-87
2022/08/21 10:26:37;;;;;;;7.85;3.20;;;;;;;;;;4994480;28;20054;-86
2022/08/21 10:29:11;;;;;;;3.72;2.20;;;;;;;;;;4997444;28;20129;-82
2022/08/21 10:31:37;;;;;;;4.82;2.28;;;;;;;;;;4978896;28;20392;-84
2022/08/21 10:34:19;;;;;;;4.63;2.15;;;;;;;;;;4988147;28;20092;-85
2022/08/21 10:36:47;;;;;;;5.27;2.13;;;;;;;;;;5000825;28;20057;-88
2022/08/21 10:39:20;;;;;;;6.38;2.10;;;;;;;;;;4997486;28;20458;-84
2022/08/21 10:42:06;;;;;;;4.13;2.10;;;;;;;;;;5002104;28;20069;-84
2022/08/21 10:44:41;;;;;;;4.10;2.10;;;;;;;;;;4983819;28;20065;-86
2022/08/21 10:47:16;;;;;;;5.63;2.20;;;;;;;;;;4995154;28;20065;-85
2022/08/21 10:49:42;;;;;;;3.60;2.03;;;;;;;;;;4994857;28;20508;-85
2022/08/21 10:52:08;;;;;;;5.38;2.10;;;;;;;;;;5003413;28;20049;-85
2022/08/21 10:54:47;;;;;;;6.78;2.42;;;;;;;;;;4990345;28;20503;-86
2022/08/21 10:57:19;;;;;;;4.43;2.20;;;;;;;;;;4990983;28;20041;-87
2022/08/21 10:59:49;;;;;;;3.35;1.90;;;;;;;;;;4992933;28;20056;-85
2022/08/21 11:02:20;;;;;;;4.72;2.00;;;;;;;;;;4991166;28;20068;-86
2022/08/21 11:04:55;;;;;;;5.50;2.33;;;;;;;;;;4988969;28;20053;-85
2022/08/21 11:07:27;;;;;;;4.90;1.90;;;;;;;;;;4996825;28;20046;-88
2022/08/21 11:09:55;;;;;;;3.93;2.00;;;;;;;;;;4986347;28;20046;-84
2022/08/21 11:12:25;;;;;;;6.43;2.53;;;;;;;;;;4987075;28;20306;-84
2022/08/21 11:15:09;;;;;;;5.32;2.13;;;;;;;;;;4990611;28;20046;-86
2022/08/21 11:17:57;;;;;;;6.13;2.30;;;;;;;;;;4985027;28;20039;-86
2022/08/21 11:20:33;;;;;;;4.22;1.90;;;;;;;;;;4986278;28;20049;-86
2022/08/21 11:23:15;;;;;;;4.65;2.03;;;;;;;;;;4991597;28;20104;-86
2022/08/21 11:25:43;;;;;;;4.70;2.20;;;;;;;;;;4997186;28;20442;-86
2022/08/21 11:28:22;;;;;;;4.45;2.15;;;;;;;;;;4995767;28;20034;-88
2022/08/21 11:31:07;;;;;;;4.28;2.33;;;;;;;;;;4998050;28;20030;-85
2022/08/21 11:33:38;;;;;;;3.92;2.00;;;;;;;;;;4991836;28;20049;-85
2022/08/21 11:36:11;;;;;;;4.15;2.30;;;;;;;;;;4997842;28;20401;-85
2022/08/21 11:38:49;;;;;;;6.82;2.17;;;;;;;;;;4983633;28;20047;-84
2022/08/21 11:41:24;;;;;;;4.05;2.38;;;;;;;;;;4982081;28;20061;-86
2022/08/21 11:44:03;;;;;;;4.20;2.10;;;;;;;;;;4993364;28;20042;-85
2022/08/21 11:46:52;;;;;;;4.70;2.10;;;;;;;;;;4992174;28;20375;-86
2022/08/21 11:49:26;;;;;;;6.10;2.20;;;;;;;;;;4989161;28;20163;-85
2022/08/21 11:52:03;;;;;;;6.30;2.72;;;;;;;;;;4987878;28;20052;-86
2022/08/21 11:54:37;;;;;;;3.83;1.92;;;;;;;;;;4993088;28;20430;-86
2022/08/21 11:57:06;;;;;;;3.63;1.90;;;;;;;;;;4993825;28;20093;-85
2022/08/21 11:59:35;;;;;;;3.80;2.00;;;;;;;;;;4987767;28;20051;-84
2022/08/21 12:02:01;;;;;;;6.32;2.25;;;;;;;;;;4992041;28;20509;-86
2022/08/21 12:04:29;;;;;;;5.45;2.25;;;;;;;;;;4987284;28;20786;-87
2022/08/21 12:06:55;;;;;;;4.75;1.90;;;;;;;;;;4982001;28;20498;-81
2022/08/21 12:09:24;;;;;;;4.90;2.20;;;;;;;;;;4987848;28;20400;-85
2022/08/21 12:12:10;;;;;;;5.72;2.13;;;;;;;;;;4998032;28;20467;-85
2022/08/21 12:14:44;;;;;;;3.38;2.08;;;;;;;;;;4994721;28;20077;-84
2022/08/21 12:17:18;;;;;;;6.00;2.40;;;;;;;;;;5005343;28;20122;-86
2022/08/21 12:19:44;;;;;;;3.65;2.00;;;;;;;;;;4990132;28;20046;-85
2022/08/21 12:22:13;;;;;;;6.90;2.05;;;;;;;;;;5003512;28;20046;-85
2022/08/21 12:24:41;;;;;;;4.45;2.08;;;;;;;;;;5001839;28;20489;-84
2022/08/21 12:27:26;;;;;;;6.03;1.90;;;;;;;;;;5007601;28;20387;-86
2022/08/21 12:29:54;;;;;;;4.95;2.00;;;;;;;;;;4989999;28;20081;-85
2022/08/21 12:32:24;;;;;;;6.85;2.03;;;;;;;;;;5001899;28;20100;-85
2022/08/21 12:35:09;;;;;;;5.30;2.10;;;;;;;;;;5000597;28;20056;-86
2022/08/21 12:37:35;;;;;;;3.50;2.03;;;;;;;;;;5006443;28;20058;-85
2022/08/21 12:40:02;;;;;;;5.05;1.90;;;;;;;;;;4999051;28;20048;-86
2022/08/21 12:42:34;;;;;;;7.10;2.20;;;;;;;;;;4995195;28;20114;-86
2022/08/21 12:45:02;;;;;;;5.10;1.80;;;;;;;;;;4998028;28;20461;-87
2022/08/21 12:47:34;;;;;;;6.53;2.00;;;;;;;;;;5007295;28;20214;-86
2022/08/21 12:50:14;;;;;;;3.38;1.80;;;;;;;;;;5001557;28;20058;-86
2022/08/21 12:52:46;;;;;;;4.78;2.05;;;;;;;;;;5004467;28;20141;-85
2022/08/21 12:55:15;;;;;;;5.50;1.90;;;;;;;;;;5003608;28;20121;-85
2022/08/21 12:57:42;;;;;;;2.78;1.90;;;;;;;;;;5007116;28;20301;-89
2022/08/21 13:00:13;;;;;;;8.80;3.15;;;;;;;;;;4991471;28;20050;-85
2022/08/21 13:02:42;;;;;;;4.97;1.92;;;;;;;;;;5001980;28;20131;-87
2022/08/21 13:05:13;;;;;;;5.20;2.05;;;;;;;;;;5005902;28;20038;-85
2022/08/21 13:07:44;;;;;;;5.63;2.10;;;;;;;;;;5001337;28;20125;-86
2022/08/21 13:10:24;;;;;;;6.03;2.13;;;;;;;;;;4989782;28;20402;-86
2022/08/21 13:12:51;;;;;;;9.95;2.38;;;;;;;;;;4992965;28;20049;-84
2022/08/21 13:15:23;;;;;;;5.43;2.03;;;;;;;;;;4992698;28;20104;-83
2022/08/21 13:17:50;;;;;;;4.65;1.80;;;;;;;;;;4991035;28;20438;-82
2022/08/21 13:20:21;;;;;;;6.70;2.20;;;;;;;;;;5000835;28;20053;-84
2022/08/21 13:22:47;;;;;;;3.13;1.83;;;;;;;;;;5002364;28;20043;-79
2022/08/21 13:25:15;;;;;;;7.47;2.42;;;;;;;;;;4989108;28;20433;-86
2022/08/21 13:27:41;;;;;;;4.80;1.95;;;;;;;;;;4983632;28;20061;-84
2022/08/21 13:30:10;;;;;;;6.22;2.20;;;;;;;;;;4987699;28;20045;-85
2022/08/21 13:32:39;;;;;;;8.98;2.65;;;;;;;;;;4990101;28;20050;-86
2022/08/21 13:35:11;;;;;;;7.22;2.13;;;;;;;;;;4992057;28;20049;-84
2022/08/21 13:37:39;;;;;;;7.93;2.30;;;;;;;;;;4993049;28;20368;-84
2022/08/21 13:40:07;;;;;;;5.15;2.20;;;;;;;;;;4984834;28;20055;-82
2022/08/21 13:42:33;;;;;;;7.40;2.38;;;;;;;;;;4996547;28;20556;-82
2022/08/21 13:44:59;;;;;;;5.60;2.15;;;;;;;;;;4992070;28;20122;-85
2022/08/21 13:47:26;;;;;;;6.55;2.92;;;;;;;;;;4999073;28;20133;-83
2022/08/21 13:49:53;;;;;;;4.90;2.30;;;;;;;;;;4991348;28;20552;-81
2022/08/21 13:52:21;;;;;;;8.02;2.50;;;;;;;;;;4984633;28;20119;-89
2022/08/21 13:54:56;;;;;;;6.80;2.33;;;;;;;;;;4983022;28;20050;-83
2022/08/21 13:57:32;;;;;;;6.55;2.10;;;;;;;;;;4973756;28;20086;-84
2022/08/21 14:00:12;;;;;;;10.68;2.50;;;;;;;;;;4993285;28;20057;-85
2022/08/21 14:02:39;;;;;;;4.80;2.20;;;;;;;;;;4991893;28;20042;-85
2022/08/21 14:05:06;;;;;;;5.88;2.30;;;;;;;;;;4999700;28;21263;-83
2022/08/21 14:07:36;;;;;;;7.60;2.47;;;;;;;;;;4977014;28;20129;-85
2022/08/21 14:10:04;;;;;;;4.07;2.22;;;;;;;;;;4996225;28;20161;-88
2022/08/21 14:12:35;;;;;;;5.25;2.10;;;;;;;;;;4982907;28;20172;-85
2022/08/21 14:15:02;;;;;;;4.00;2.00;;;;;;;;;;4987622;28;20045;-86
2022/08/21 14:17:33;;;;;;;4.88;2.10;;;;;;;;;;4973180;28;20046;-85
2022/08/21 14:19:59;;;;;;;5.25;2.15;;;;;;;;;;4984715;28;20050;-87
2022/08/21 14:22:36;;;;;;;4.70;2.50;;;;;;;;;;4991891;28;20058;-90
2022/08/21 14:25:06;;;;;;;4.65;2.38;;;;;;;;;;4978126;28;20072;-87
2022/08/21 14:27:34;;;;;;;5.30;2.30;;;;;;;;;;4984565;28;20077;-88
2022/08/21 14:30:02;;;;;;;3.55;2.20;;;;;;;;;;4987647;28;20039;-88
2022/08/21 14:32:31;;;;;;;4.25;2.33;;;;;;;;;;4988199;28;20475;-78
2022/08/21 14:34:57;;;;;;;4.10;2.10;;;;;;;;;;4982306;28;20080;-86
2022/08/21 14:37:24;;;;;;;4.10;1.95;;;;;;;;;;4987008;28;20054;-84
2022/08/21 14:39:50;;;;;;;5.10;2.00;;;;;;;;;;4980146;28;20054;-85
2022/08/21 14:42:16;;;;;;;4.43;1.83;;;;;;;;;;4972324;28;20043;-86
2022/08/21 14:44:42;;;;;;;3.50;1.85;;;;;;;;;;5005168;28;20092;-85
2022/08/21 14:47:09;;;;;;;4.75;2.00;;;;;;;;;;4976263;28;20134;-84
2022/08/21 14:49:35;;;;;;;5.22;2.05;;;;;;;;;;5002287;28;20042;-86
2022/08/21 14:52:01;;;;;;;5.45;2.00;;;;;;;;;;4986029;28;20085;-84